Tarawa, Kiribati
Current Conditions -  °F | °C
As of 10:00 AM on Thursday 29 Jan 2015 (Local Time) from NGTT Reporting Station
Rain Showers Rain Showers  
Wind Chill: 86°   Ceiling: 30000
Heat Index: 95°   Visibility: 6mi
Dew Point: 75°   Wind: 13mph
Humidity: 70%   Direction: 60°ENE
Pressure: NA   Gusts: NA
Location:  1.33°N, 172.98°E
Report Text: NGTT 282200Z 06011KT 9999 VCSH FEW016CB SCT100 BKN300 30/24 Q1007
Loading
Personal Weather Stations






























Interactive Weather Map New forecast layout! Learn more

10-Day Weather Forecast

Advertisements
Track Severe Weather on mobile